createdAt,value
2023-10-06T00:00:20.920Z,11.65
2023-10-06T00:03:12.515Z,13.45
2023-10-06T00:05:59.251Z,13.23
2023-10-06T00:08:52.930Z,10.90
2023-10-06T00:11:44.130Z,12.02
2023-10-06T00:14:56.730Z,13.65
2023-10-06T00:17:50.353Z,12.85
2023-10-06T00:20:51.777Z,12.40
2023-10-06T00:23:41.611Z,8.38
2023-10-06T00:26:34.201Z,11.02
2023-10-06T00:29:24.713Z,11.10
2023-10-06T00:32:23.538Z,11.90
2023-10-06T00:35:16.345Z,11.10
2023-10-06T00:38:22.418Z,11.40
2023-10-06T00:41:08.953Z,12.77
2023-10-06T00:44:05.190Z,11.43
2023-10-06T00:46:53.900Z,12.93
2023-10-06T00:49:47.248Z,11.43
2023-10-06T00:52:35.322Z,10.60
2023-10-06T00:55:21.778Z,10.55
2023-10-06T00:58:17.711Z,9.75
2023-10-06T01:01:07.075Z,11.13
2023-10-06T01:04:13.876Z,8.57
2023-10-06T01:07:01.368Z,9.52
2023-10-06T01:10:09.884Z,14.02
2023-10-06T01:12:58.798Z,14.40
2023-10-06T01:15:51.177Z,13.30
2023-10-06T01:18:42.772Z,16.27
2023-10-06T01:21:31.977Z,16.40
2023-10-06T01:24:32.695Z,16.65
2023-10-06T01:27:22.515Z,13.88
2023-10-06T01:30:38.915Z,16.58
2023-10-06T01:33:25.039Z,15.57
2023-10-06T01:36:15.193Z,14.10
2023-10-06T01:39:05.967Z,11.95
2023-10-06T01:41:54.853Z,12.77
2023-10-06T01:44:40.959Z,11.80
2023-10-06T01:47:30.962Z,12.40
2023-10-06T01:50:22.692Z,11.80
2023-10-06T01:53:19.912Z,9.25
2023-10-06T01:56:09.740Z,9.10
2023-10-06T01:59:06.489Z,12.85
2023-10-06T02:01:52.828Z,13.77
2023-10-06T02:04:46.716Z,13.45
2023-10-06T02:07:37.047Z,12.00
2023-10-06T02:10:25.759Z,13.38
2023-10-06T02:13:12.534Z,9.23
2023-10-06T02:16:02.727Z,11.60
2023-10-06T02:18:48.645Z,10.82
2023-10-06T02:21:36.986Z,14.60
2023-10-06T02:24:28.022Z,12.45
2023-10-06T02:27:17.185Z,14.43
2023-10-06T02:30:12.255Z,9.52
2023-10-06T02:32:58.847Z,11.23
2023-10-06T02:35:48.108Z,12.00
2023-10-06T02:38:42.640Z,17.63
2023-10-06T02:41:33.902Z,13.27
2023-10-06T02:44:24.299Z,14.23
2023-10-06T02:47:13.390Z,17.08
2023-10-06T02:50:08.320Z,11.60
2023-10-06T02:52:57.123Z,12.02
2023-10-06T02:55:47.449Z,13.93
2023-10-06T02:58:34.720Z,14.73
2023-10-06T03:01:23.395Z,12.15
2023-10-06T03:04:13.205Z,11.68
2023-10-06T03:09:52.621Z,11.02
2023-10-06T03:12:41.083Z,12.20
2023-10-06T03:15:47.456Z,16.48
2023-10-06T03:18:36.331Z,12.07
2023-10-06T03:21:23.920Z,12.55
2023-10-06T03:24:19.147Z,11.80
2023-10-06T03:27:13.722Z,11.75
2023-10-06T03:30:12.377Z,12.48
2023-10-06T03:33:00.118Z,12.80
2023-10-06T03:35:48.430Z,13.57
2023-10-06T03:38:38.027Z,12.43
2023-10-06T03:41:34.056Z,14.48
2023-10-06T03:44:32.088Z,14.70
2023-10-06T03:47:26.200Z,16.23
2023-10-06T03:50:12.374Z,10.10
2023-10-06T03:53:02.567Z,14.38
2023-10-06T03:55:51.450Z,10.77
2023-10-06T03:58:37.692Z,11.20
2023-10-06T04:01:32.792Z,14.82
2023-10-06T04:04:24.543Z,11.65
2023-10-06T04:07:10.812Z,12.63
2023-10-06T04:09:56.934Z,11.45
2023-10-06T04:12:44.798Z,12.50
2023-10-06T04:15:33.522Z,9.90
2023-10-06T04:18:25.278Z,18.98
2023-10-06T04:21:13.583Z,13.10
2023-10-06T04:24:02.035Z,10.85
2023-10-06T04:26:53.533Z,11.30
2023-10-06T04:29:41.155Z,12.93
2023-10-06T04:32:27.421Z,10.70
2023-10-06T04:35:20.939Z,12.82
2023-10-06T04:38:11.527Z,16.63
2023-10-06T04:40:58.184Z,15.95
2023-10-06T04:43:46.331Z,14.10
2023-10-06T04:46:32.515Z,14.60
2023-10-06T04:49:18.787Z,14.82
2023-10-06T04:52:05.496Z,12.82
2023-10-06T04:54:51.341Z,15.45
2023-10-06T04:57:37.455Z,14.68
2023-10-06T05:00:28.571Z,12.38
2023-10-06T05:03:15.246Z,12.32
2023-10-06T05:06:01.470Z,15.02
2023-10-06T05:08:48.768Z,14.43
2023-10-06T05:11:35.307Z,16.55
2023-10-06T05:14:21.075Z,11.98
2023-10-06T05:17:07.570Z,14.35
2023-10-06T05:19:56.552Z,16.67
2023-10-06T05:22:42.849Z,16.30
2023-10-06T05:25:30.769Z,14.38
2023-10-06T05:28:22.037Z,14.02
2023-10-06T05:31:08.898Z,19.63
2023-10-06T05:33:58.306Z,20.65
2023-10-06T05:36:44.861Z,16.45
2023-10-06T05:39:35.476Z,15.55
2023-10-06T05:42:21.981Z,11.93
2023-10-06T05:45:16.853Z,15.90
2023-10-06T05:48:08.441Z,14.02
2023-10-06T05:50:57.949Z,14.50
2023-10-06T05:53:46.865Z,19.02
2023-10-06T05:56:34.348Z,14.10
2023-10-06T05:59:24.146Z,17.35
2023-10-06T06:02:10.943Z,13.95
2023-10-06T06:05:00.582Z,12.07
2023-10-06T06:07:46.826Z,16.33
2023-10-06T06:10:34.678Z,14.68
2023-10-06T06:13:23.894Z,17.98
2023-10-06T06:16:16.329Z,14.63
2023-10-06T06:19:02.788Z,14.90
2023-10-06T06:21:50.281Z,14.10
2023-10-06T06:24:39.837Z,14.20
2023-10-06T06:27:26.146Z,13.10
2023-10-06T06:30:20.028Z,13.93
2023-10-06T06:33:10.079Z,14.02
2023-10-06T06:35:57.452Z,18.35
2023-10-06T06:38:46.992Z,19.50
2023-10-06T06:41:34.515Z,17.42
2023-10-06T06:44:23.313Z,13.88
2023-10-06T06:47:09.383Z,18.02
2023-10-06T06:50:00.666Z,16.65
2023-10-06T06:52:57.124Z,14.55
2023-10-06T06:55:44.459Z,14.13
2023-10-06T06:58:33.729Z,12.73
2023-10-06T07:01:20.139Z,11.18
2023-10-06T07:04:09.201Z,17.50
2023-10-06T07:06:57.694Z,18.75
2023-10-06T07:09:43.734Z,15.25
2023-10-06T07:12:29.963Z,18.13
2023-10-06T07:15:17.568Z,16.45
2023-10-06T07:18:05.301Z,15.00
2023-10-06T07:20:56.070Z,17.15
2023-10-06T07:23:46.073Z,19.40
2023-10-06T07:26:37.060Z,17.42
2023-10-06T07:29:23.850Z,15.88
2023-10-06T07:32:15.843Z,17.95
2023-10-06T07:35:08.259Z,21.15
2023-10-06T07:37:59.831Z,18.75
2023-10-06T07:40:56.002Z,16.67
2023-10-06T07:43:42.327Z,16.50
2023-10-06T07:46:31.084Z,16.42
2023-10-06T07:49:19.583Z,16.65
2023-10-06T07:52:12.113Z,18.50
2023-10-06T07:55:07.800Z,17.48
2023-10-06T07:57:57.309Z,16.88
2023-10-06T08:00:43.536Z,17.10
2023-10-06T08:03:33.971Z,19.33
2023-10-06T08:06:19.994Z,20.10
2023-10-06T08:09:12.278Z,19.23
2023-10-06T08:12:05.560Z,20.88
2023-10-06T08:14:56.559Z,23.70
2023-10-06T08:17:46.998Z,20.30
2023-10-06T08:20:34.048Z,21.60
2023-10-06T08:23:22.514Z,22.42
2023-10-06T08:26:45.492Z,20.90
2023-10-06T08:29:24.572Z,20.00
2023-10-06T08:34:59.129Z,16.98
2023-10-06T08:37:47.452Z,19.33
2023-10-06T08:40:35.412Z,20.83
2023-10-06T08:43:27.860Z,19.92
2023-10-06T08:46:16.372Z,20.27
2023-10-06T08:49:07.269Z,22.38
2023-10-06T08:51:58.113Z,19.15
2023-10-06T08:54:46.460Z,24.73
2023-10-06T08:57:33.336Z,22.55
2023-10-06T09:00:25.648Z,23.50
2023-10-06T09:03:18.306Z,27.35
2023-10-06T09:06:06.681Z,24.02
2023-10-06T09:08:53.505Z,23.52
2023-10-06T09:11:42.127Z,26.05
2023-10-06T09:14:32.814Z,24.13
2023-10-06T09:17:35.252Z,26.42
2023-10-06T09:20:39.693Z,26.88
2023-10-06T09:23:38.499Z,30.02
2023-10-06T09:26:35.312Z,35.30
2023-10-06T09:29:36.008Z,33.40
2023-10-06T09:32:27.389Z,30.17
2023-10-06T09:35:29.715Z,31.52
2023-10-06T09:38:23.017Z,29.60
2023-10-06T09:41:11.103Z,32.63
2023-10-06T09:44:05.301Z,27.77
2023-10-06T09:46:54.984Z,27.80
2023-10-06T09:49:42.270Z,32.47
2023-10-06T09:52:30.237Z,26.92
2023-10-06T09:55:22.874Z,25.50
2023-10-06T09:58:10.962Z,25.08
2023-10-06T10:00:58.210Z,24.07
2023-10-06T10:03:49.207Z,25.45
2023-10-06T10:06:41.048Z,21.42
2023-10-06T10:09:35.631Z,21.75
2023-10-06T10:12:51.772Z,23.15
2023-10-06T10:16:39.396Z,23.73
2023-10-06T10:19:28.739Z,18.98
2023-10-06T10:22:22.718Z,23.42
2023-10-06T10:28:22.741Z,19.02
2023-10-06T10:31:15.345Z,22.52
2023-10-06T10:34:22.837Z,19.77
2023-10-06T10:37:28.359Z,18.92
2023-10-06T10:40:30.190Z,16.75
2023-10-06T10:46:42.683Z,18.38
2023-10-06T10:49:48.857Z,20.65
2023-10-06T10:55:51.974Z,17.80
2023-10-06T10:58:46.060Z,18.27
2023-10-06T11:01:39.969Z,19.08
2023-10-06T11:04:55.116Z,22.33
2023-10-06T11:08:12.950Z,15.85
2023-10-06T11:11:19.398Z,17.85
2023-10-06T11:14:24.688Z,17.48
2023-10-06T11:17:19.088Z,17.90
2023-10-06T11:20:42.604Z,19.88
2023-10-06T11:23:49.870Z,18.75
2023-10-06T11:26:47.811Z,14.95
2023-10-06T11:29:49.441Z,18.02
2023-10-06T11:32:43.283Z,17.42
2023-10-06T11:35:32.030Z,15.93
2023-10-06T11:38:20.048Z,12.60
2023-10-06T11:41:15.307Z,14.90
2023-10-06T11:44:06.154Z,12.23
2023-10-06T11:47:06.282Z,17.80
2023-10-06T11:50:01.867Z,12.18
2023-10-06T11:52:54.492Z,14.23
2023-10-06T11:55:43.180Z,15.38
2023-10-06T11:58:40.936Z,14.50
2023-10-06T12:01:37.991Z,13.93
2023-10-06T12:04:33.011Z,14.00
2023-10-06T12:07:28.262Z,13.65
2023-10-06T12:10:23.517Z,15.75
2023-10-06T12:13:16.012Z,16.30
2023-10-06T12:16:16.332Z,14.45
2023-10-06T12:19:09.830Z,11.85
2023-10-06T12:22:00.989Z,14.13
2023-10-06T12:27:40.400Z,14.35
2023-10-06T12:30:39.728Z,12.15
2023-10-06T12:33:29.194Z,11.82
2023-10-06T12:36:21.126Z,13.20
2023-10-06T12:39:43.692Z,15.20
2023-10-06T12:42:33.251Z,14.48
2023-10-06T12:45:35.591Z,9.75
2023-10-06T12:48:27.473Z,11.13
2023-10-06T12:51:21.944Z,13.18
2023-10-06T12:57:00.763Z,10.68
2023-10-06T12:59:51.221Z,10.45
2023-10-06T13:02:50.200Z,10.30
2023-10-06T13:05:41.297Z,13.85
2023-10-06T13:08:38.460Z,13.25
2023-10-06T13:11:25.402Z,12.10
2023-10-06T13:14:16.796Z,12.43
2023-10-06T13:17:09.704Z,13.68
2023-10-06T13:19:59.488Z,11.68
2023-10-06T13:22:57.133Z,9.85
2023-10-06T13:25:49.798Z,12.48
2023-10-06T13:28:41.321Z,12.20
2023-10-06T13:31:35.887Z,13.02
2023-10-06T13:34:24.440Z,13.05
2023-10-06T13:37:16.451Z,10.10
2023-10-06T13:40:06.451Z,10.82
2023-10-06T13:42:55.526Z,10.18
2023-10-06T13:45:50.692Z,10.77
2023-10-06T13:48:37.125Z,10.07
2023-10-06T13:51:24.936Z,10.50
2023-10-06T13:54:11.425Z,12.70
2023-10-06T13:57:00.531Z,9.77
2023-10-06T13:59:56.592Z,8.70
2023-10-06T14:02:43.283Z,13.15
2023-10-06T14:05:58.386Z,11.45
2023-10-06T14:08:46.418Z,14.30
2023-10-06T14:11:36.032Z,14.48
2023-10-06T14:15:02.154Z,15.35
2023-10-06T14:17:48.697Z,9.52
2023-10-06T14:20:35.204Z,15.50
2023-10-06T14:23:32.536Z,10.35
2023-10-06T14:26:21.217Z,12.27
2023-10-06T14:29:08.343Z,16.23
2023-10-06T14:32:14.224Z,11.05
2023-10-06T14:35:00.458Z,13.73
2023-10-06T14:38:14.681Z,11.50
2023-10-06T14:41:38.245Z,11.45
2023-10-06T14:44:46.185Z,12.82
2023-10-06T14:47:35.675Z,13.73
2023-10-06T14:50:37.380Z,10.43
2023-10-06T14:53:36.233Z,15.45
2023-10-06T14:57:14.460Z,11.45
2023-10-06T15:00:16.296Z,14.65
2023-10-06T15:03:03.677Z,9.50
2023-10-06T15:06:04.462Z,11.25
2023-10-06T15:09:26.292Z,12.60
2023-10-06T15:26:11.703Z,7.75
2023-10-06T15:29:00.425Z,8.85
2023-10-06T15:31:54.239Z,9.00
2023-10-06T15:34:40.820Z,12.45
2023-10-06T15:37:26.757Z,11.52
2023-10-06T15:40:12.433Z,14.70
2023-10-06T15:43:13.199Z,13.52
2023-10-06T15:46:10.130Z,12.60
2023-10-06T15:49:02.687Z,13.50
2023-10-06T15:51:48.931Z,12.63
2023-10-06T15:54:35.033Z,18.70
2023-10-06T15:57:21.702Z,14.55
2023-10-06T16:00:11.862Z,12.85
2023-10-06T16:02:58.445Z,7.30
2023-10-06T16:05:44.527Z,9.35
2023-10-06T16:08:30.512Z,10.23
2023-10-06T16:11:17.350Z,13.60
2023-10-06T16:14:06.557Z,10.98
2023-10-06T16:19:40.601Z,10.60
2023-10-06T16:22:26.768Z,9.25
2023-10-06T16:25:13.765Z,9.30
2023-10-06T16:27:59.525Z,9.85
2023-10-06T16:30:49.140Z,7.68
2023-10-06T16:33:39.350Z,7.90
2023-10-06T16:36:25.551Z,10.57
2023-10-06T16:39:18.625Z,6.93
2023-10-06T16:42:07.061Z,14.77
2023-10-06T16:44:53.304Z,12.23
2023-10-06T16:47:39.281Z,8.50
2023-10-06T16:50:26.391Z,9.05
2023-10-06T16:53:14.977Z,9.10
2023-10-06T16:56:01.511Z,8.88
2023-10-06T16:58:50.199Z,10.30
2023-10-06T17:01:36.575Z,11.80
2023-10-06T17:04:22.449Z,10.45
2023-10-06T17:07:08.369Z,8.80
2023-10-06T17:09:54.093Z,7.95
2023-10-06T17:12:40.729Z,11.40
2023-10-06T17:15:26.516Z,12.38
2023-10-06T17:18:12.830Z,17.35
2023-10-06T17:21:01.528Z,11.25
2023-10-06T17:23:48.023Z,13.52
2023-10-06T17:26:34.299Z,11.05
2023-10-06T17:29:20.107Z,14.00
2023-10-06T17:32:06.107Z,13.23
2023-10-06T17:34:52.833Z,8.63
2023-10-06T17:37:39.088Z,9.88
2023-10-06T17:40:25.122Z,10.35
2023-10-06T17:43:13.231Z,12.07
2023-10-06T17:45:59.726Z,11.73
2023-10-06T17:48:49.009Z,10.57
2023-10-06T17:51:37.612Z,12.73
2023-10-06T17:54:30.084Z,10.40
2023-10-06T17:57:16.610Z,14.10
2023-10-06T18:00:03.031Z,11.70
2023-10-06T18:02:58.830Z,13.65
2023-10-06T18:05:46.339Z,10.05
2023-10-06T18:08:33.015Z,10.45
2023-10-06T18:11:19.060Z,9.95
2023-10-06T18:14:05.140Z,10.48
2023-10-06T18:16:52.062Z,10.77
2023-10-06T18:19:37.893Z,6.15
2023-10-06T18:22:24.457Z,8.98
2023-10-06T18:25:13.206Z,10.35
2023-10-06T18:27:59.334Z,10.27
2023-10-06T18:30:49.779Z,9.48
2023-10-06T18:33:37.163Z,10.40
2023-10-06T18:36:22.870Z,11.27
2023-10-06T18:39:08.950Z,8.57
2023-10-06T18:41:54.932Z,9.27
2023-10-06T18:44:41.060Z,9.82
2023-10-06T18:47:26.941Z,9.77
2023-10-06T18:50:22.675Z,10.80
2023-10-06T18:53:08.829Z,9.93
2023-10-06T18:55:54.579Z,11.85
2023-10-06T18:58:40.441Z,10.13
2023-10-06T19:01:27.203Z,14.82
2023-10-06T19:04:13.945Z,14.68
2023-10-06T19:06:59.698Z,17.40
2023-10-06T19:09:45.239Z,13.10
2023-10-06T19:12:33.918Z,11.52
2023-10-06T19:15:19.356Z,13.32
2023-10-06T19:18:05.239Z,10.80
2023-10-06T19:21:01.132Z,10.43
2023-10-06T19:23:47.350Z,12.65
2023-10-06T19:26:36.436Z,15.05
2023-10-06T19:29:23.233Z,9.55
2023-10-06T19:32:09.356Z,11.88
2023-10-06T19:34:56.471Z,11.77
2023-10-06T19:37:42.785Z,10.18
2023-10-06T19:40:30.196Z,13.32
2023-10-06T19:43:16.122Z,18.55
2023-10-06T19:46:06.037Z,15.73
2023-10-06T19:48:55.416Z,13.73
2023-10-06T19:51:43.130Z,14.15
2023-10-06T19:54:29.233Z,13.48
2023-10-06T19:57:16.861Z,10.23
2023-10-06T20:00:12.404Z,13.13
2023-10-06T20:02:58.205Z,12.43
2023-10-06T20:05:44.994Z,11.45
2023-10-06T20:08:31.869Z,12.75
2023-10-06T20:11:20.596Z,15.90
2023-10-06T20:14:08.552Z,11.38
2023-10-06T20:16:54.923Z,12.45
2023-10-06T20:19:41.136Z,21.33
2023-10-06T20:22:27.432Z,27.73
2023-10-06T20:25:15.790Z,30.77
2023-10-06T20:28:04.665Z,34.97
2023-10-06T20:30:50.772Z,28.83
2023-10-06T20:33:36.863Z,20.10
2023-10-06T20:36:22.819Z,20.70
2023-10-06T20:39:12.084Z,16.02
2023-10-06T20:41:58.176Z,19.33
2023-10-06T20:44:44.366Z,15.35
2023-10-06T20:47:33.213Z,22.30
2023-10-06T20:50:19.228Z,16.35
2023-10-06T20:53:04.952Z,15.90
2023-10-06T20:55:50.574Z,11.27
2023-10-06T20:58:36.631Z,15.52
2023-10-06T21:01:22.719Z,12.68
2023-10-06T21:04:10.030Z,9.57
2023-10-06T21:06:57.264Z,10.57
2023-10-06T21:09:44.945Z,15.57
2023-10-06T21:12:30.646Z,13.50
2023-10-06T21:15:17.664Z,13.95
2023-10-06T21:18:03.540Z,11.73
2023-10-06T21:20:50.238Z,11.65
2023-10-06T21:23:36.358Z,10.25
2023-10-06T21:26:25.433Z,10.55
2023-10-06T21:29:12.370Z,10.25
2023-10-06T21:31:58.440Z,10.13
2023-10-06T21:34:44.796Z,10.52
2023-10-06T21:37:31.044Z,11.35
2023-10-06T21:40:17.618Z,13.95
2023-10-06T21:43:03.926Z,14.02
2023-10-06T21:45:50.414Z,13.02
2023-10-06T21:48:36.309Z,13.15
2023-10-06T21:51:22.305Z,18.35
2023-10-06T21:54:09.102Z,16.02
2023-10-06T21:56:55.099Z,13.40
2023-10-06T21:59:44.689Z,22.25
2023-10-06T22:02:31.050Z,17.35
2023-10-06T22:05:17.766Z,17.63
2023-10-06T22:08:04.012Z,17.13
2023-10-06T22:10:50.123Z,14.10
2023-10-06T22:13:36.317Z,14.27
2023-10-06T22:16:22.095Z,19.85
2023-10-06T22:19:11.673Z,16.92
2023-10-06T22:22:01.663Z,13.18
2023-10-06T22:24:47.637Z,11.95
2023-10-06T22:27:33.948Z,15.25
2023-10-06T22:30:20.053Z,16.00
2023-10-06T22:33:08.168Z,10.55
2023-10-06T22:35:53.657Z,16.70
2023-10-06T22:38:40.084Z,18.40
2023-10-06T22:41:25.706Z,17.40
2023-10-06T22:44:11.490Z,14.63
2023-10-06T22:46:59.625Z,14.63
2023-10-06T22:49:46.996Z,16.48
2023-10-06T22:52:32.904Z,17.40
2023-10-06T22:55:24.564Z,15.68
2023-10-06T22:58:11.920Z,14.07
2023-10-06T23:00:59.587Z,15.18
2023-10-06T23:03:45.511Z,19.88
2023-10-06T23:06:31.798Z,16.75
2023-10-06T23:09:18.581Z,14.15
2023-10-06T23:12:06.239Z,15.82
2023-10-06T23:14:52.248Z,18.27
2023-10-06T23:17:42.148Z,15.10
2023-10-06T23:20:29.270Z,14.52
2023-10-06T23:23:20.696Z,11.23
2023-10-06T23:26:11.577Z,12.45
2023-10-06T23:28:57.722Z,14.00
2023-10-06T23:31:44.874Z,12.10
2023-10-06T23:34:31.687Z,17.23
2023-10-06T23:37:17.946Z,17.80
2023-10-06T23:40:07.068Z,19.60
2023-10-06T23:42:56.311Z,24.58
2023-10-06T23:45:47.214Z,20.38
2023-10-06T23:48:33.655Z,17.13
2023-10-06T23:51:20.211Z,15.77
2023-10-06T23:54:10.385Z,17.27
2023-10-06T23:56:58.662Z,11.98
2023-10-06T23:59:49.423Z,15.07
